Time;durP1;ratioP1;P1;durP2;ratioP2;P2;SDS_P1;SDS_P2;PMS_P1;PMS_P2;Temp;Humidity;BMP_temperature;BMP_pressure;BME280_temperature;BME280_humidity;BME280_pressure;Samples;Min_cycle;Max_cycle;Signal;HPM_P1;HPM_P2
2022/09/11 00:00:20;;;;;;;;;18.50;17.00;;;;;15.71;82.13;99866.91;5151927;27;8845;-81
2022/09/11 00:02:48;;;;;;;;;18.50;16.00;;;;;15.68;82.28;99869.94;5153104;27;8938;-81
2022/09/11 00:05:15;;;;;;;;;18.75;16.00;;;;;15.64;81.87;99862.34;5152892;27;8942;-81
2022/09/11 00:07:43;;;;;;;;;22.25;15.25;;;;;15.60;81.72;99867.19;5150602;27;8821;-81
2022/09/11 00:10:11;;;;;;;;;21.25;19.00;;;;;15.56;82.05;99862.28;5150306;27;8836;-81
2022/09/11 00:12:38;;;;;;;;;15.25;13.50;;;;;15.52;82.19;99868.94;5150102;27;8894;-81
2022/09/11 00:15:06;;;;;;;;;17.75;15.50;;;;;15.49;82.74;99863.91;5150493;27;8814;-81
2022/09/11 00:17:34;;;;;;;;;19.00;18.00;;;;;15.45;82.10;99868.72;5150607;27;8849;-81
2022/09/11 00:20:01;;;;;;;;;14.25;14.00;;;;;15.42;82.38;99885.16;5149243;27;8940;-81
2022/09/11 00:22:29;;;;;;;;;12.75;11.50;;;;;15.40;82.32;99870.19;5150265;27;8867;-81
2022/09/11 00:24:58;;;;;;;;;20.75;16.50;;;;;15.40;82.34;99880.94;5148063;27;8877;-81
2022/09/11 00:27:26;;;;;;;;;19.75;18.00;;;;;15.39;82.27;99879.25;5149436;27;8814;-81
2022/09/11 00:29:53;;;;;;;;;19.50;19.00;;;;;15.38;82.31;99870.34;5150049;27;8918;-81
2022/09/11 00:32:21;;;;;;;;;15.50;15.00;;;;;15.37;82.38;99865.13;5150053;27;8850;-81
2022/09/11 00:34:49;;;;;;;;;23.50;21.00;;;;;15.34;82.71;99871.66;5149808;27;8949;-81
2022/09/11 00:37:16;;;;;;;;;19.25;16.50;;;;;15.34;82.01;99870.81;5149589;27;8830;-81
2022/09/11 00:39:45;;;;;;;;;18.50;13.00;;;;;15.30;82.16;99869.38;5149433;27;8818;-81
2022/09/11 00:42:13;;;;;;;;;15.50;10.50;;;;;15.27;82.64;99864.34;5149613;27;8852;-81
2022/09/11 00:44:41;;;;;;;;;16.50;14.50;;;;;15.25;82.33;99875.22;5149209;27;8838;-81
2022/09/11 00:47:09;;;;;;;;;19.00;18.00;;;;;15.23;82.73;99874.53;5149032;27;8938;-81
2022/09/11 00:49:37;;;;;;;;;20.00;18.00;;;;;15.22;82.35;99883.56;5148948;27;8836;-81
2022/09/11 00:52:07;;;;;;;;;27.50;23.00;;;;;15.21;82.66;99878.34;5149487;27;8980;-81
2022/09/11 00:54:35;;;;;;;;;23.00;18.50;;;;;15.18;83.15;99879.50;5148472;27;8814;-81
2022/09/11 00:57:03;;;;;;;;;13.50;10.50;;;;;15.16;82.68;99881.50;5148630;27;8934;-81
2022/09/11 00:59:30;;;;;;;;;12.25;7.75;;;;;15.14;82.61;99879.97;5148772;27;8852;-81
2022/09/11 01:02:05;;;;;;;;;19.75;17.50;;;;;15.13;82.61;99883.63;5148581;27;9008;-81
2022/09/11 01:04:33;;;;;;;;;22.00;17.50;;;;;15.10;82.58;99895.50;5148219;27;8914;-81
2022/09/11 01:07:01;;;;;;;;;23.00;20.75;;;;;15.08;82.50;99892.16;5147226;27;8857;-81
2022/09/11 01:09:28;;;;;;;;;18.00;16.00;;;;;15.06;82.62;99887.91;5148718;27;8866;-81
2022/09/11 01:11:56;;;;;;;;;18.25;13.50;;;;;15.04;82.99;99888.09;5148385;27;8830;-81
2022/09/11 01:14:24;;;;;;;;;12.75;9.75;;;;;15.04;83.09;99889.91;5148065;27;8849;-81
2022/09/11 01:16:52;;;;;;;;;18.50;16.75;;;;;15.02;83.20;99898.09;5148881;27;8845;-81
2022/09/11 01:19:19;;;;;;;;;17.25;14.00;;;;;15.01;82.80;99892.91;5148233;27;8853;-81
2022/09/11 01:21:51;;;;;;;;;16.50;15.25;;;;;15.00;82.75;99899.25;5148525;27;8830;-81
2022/09/11 01:24:18;;;;;;;;;19.00;16.00;;;;;14.98;82.58;99898.56;5148149;27;8856;-81
2022/09/11 01:26:46;;;;;;;;;15.50;14.50;;;;;14.97;82.48;99900.41;5147586;27;8849;-81
2022/09/11 01:29:14;;;;;;;;;15.75;12.75;;;;;14.96;82.46;99903.25;5148303;27;8838;-81
2022/09/11 01:31:44;;;;;;;;;18.75;15.25;;;;;14.94;82.65;99900.69;5148112;27;8828;-81
2022/09/11 01:34:12;;;;;;;;;23.75;19.00;;;;;14.94;82.42;99910.59;5148022;27;8822;-81
2022/09/11 01:36:40;;;;;;;;;7.00;5.00;;;;;14.94;82.82;99910.59;5147586;27;8846;-81
2022/09/11 01:39:08;;;;;;;;;15.50;14.00;;;;;14.97;82.86;99911.16;5147658;27;8961;-81
2022/09/11 01:41:36;;;;;;;;;20.00;18.50;;;;;15.01;82.28;99915.19;5148341;27;8846;-81
2022/09/11 01:44:03;;;;;;;;;21.00;18.25;;;;;15.05;82.16;99926.47;5147891;27;8834;-81
2022/09/11 01:46:33;;;;;;;;;25.50;21.00;;;;;15.09;82.58;99922.50;5147856;27;8850;-81
2022/09/11 01:49:01;;;;;;;;;22.00;20.00;;;;;15.14;81.99;99917.50;5146623;27;8837;-81
2022/09/11 01:51:28;;;;;;;;;19.25;18.00;;;;;15.18;82.06;99918.91;5147245;27;8888;-81
2022/09/11 01:53:58;;;;;;;;;22.25;18.00;;;;;15.23;82.24;99927.31;5147198;27;8833;-81
2022/09/11 01:56:25;;;;;;;;;21.00;18.25;;;;;15.28;81.94;99927.72;5147622;27;8861;-81
2022/09/11 01:58:54;;;;;;;;;19.00;17.25;;;;;15.34;81.43;99930.69;5146588;27;8822;-81
2022/09/11 02:01:22;;;;;;;;;18.50;17.50;;;;;15.40;81.73;99929.25;5147555;27;8862;-81
2022/09/11 02:03:51;;;;;;;;;22.00;17.25;;;;;15.43;81.32;99928.91;5147757;27;8854;-81
2022/09/11 02:06:18;;;;;;;;;26.00;23.00;;;;;15.46;81.30;99939.38;5147510;27;8818;-81
2022/09/11 02:08:47;;;;;;;;;19.25;17.75;;;;;15.49;81.44;99934.50;5147291;27;8927;-81
2022/09/11 02:11:15;;;;;;;;;22.00;21.00;;;;;15.53;81.04;99929.69;5147173;27;8833;-81
2022/09/11 02:13:45;;;;;;;;;20.75;18.25;;;;;15.56;81.12;99945.50;5146987;27;8850;-81
2022/09/11 02:16:13;;;;;;;;;19.75;16.00;;;;;15.59;81.15;99942.50;5129286;27;8821;-81
2022/09/11 02:18:41;;;;;;;;;18.50;15.50;;;;;15.62;80.87;99939.53;5145994;27;8819;-81
2022/09/11 02:21:09;;;;;;;;;24.00;19.00;;;;;15.65;80.88;99947.25;5147214;27;8845;-81
2022/09/11 02:23:38;;;;;;;;;26.00;21.50;;;;;15.69;81.24;99943.28;5146941;27;8924;-81
2022/09/11 02:26:06;;;;;;;;;18.00;17.00;;;;;15.72;80.92;99945.63;5147061;27;8837;-81
2022/09/11 02:28:34;;;;;;;;;14.00;12.25;;;;;15.75;81.10;99946.19;5146040;27;8883;-81
2022/09/11 02:31:02;;;;;;;;;17.50;13.50;;;;;15.76;80.96;99933.59;5146229;27;8825;-81
2022/09/11 02:33:31;;;;;;;;;17.00;12.50;;;;;15.80;81.28;99949.25;5146535;27;8833;-81
2022/09/11 02:35:58;;;;;;;;;11.00;9.50;;;;;15.85;80.45;99946.09;5146165;27;8836;-81
2022/09/11 02:38:26;;;;;;;;;22.50;21.50;;;;;15.88;80.51;99943.09;5145761;27;8822;-81
2022/09/11 02:40:54;;;;;;;;;18.00;16.00;;;;;15.91;80.00;99945.47;5146612;27;8845;-81
2022/09/11 02:43:22;;;;;;;;;24.25;20.25;;;;;15.96;80.50;99943.16;5145757;27;8848;-81
2022/09/11 02:45:53;;;;;;;;;25.50;23.75;;;;;15.99;80.56;99949.06;5145155;27;8853;-81
2022/09/11 02:48:20;;;;;;;;;29.00;23.75;;;;;16.04;80.48;99945.91;5145221;27;8838;-81
2022/09/11 02:50:48;;;;;;;;;26.00;21.25;;;;;16.07;80.55;99950.97;5145097;27;8829;-81
2022/09/11 02:53:16;;;;;;;;;13.50;13.50;;;;;16.10;79.64;99950.66;5145446;27;8855;-81
2022/09/11 02:55:44;;;;;;;;;27.00;24.00;;;;;16.13;80.35;99955.69;5146442;27;8850;-81
2022/09/11 02:58:11;;;;;;;;;28.75;24.00;;;;;16.15;79.79;99953.72;5145214;27;8826;-81
2022/09/11 03:00:39;;;;;;;;;14.25;12.00;;;;;16.17;80.40;99949.03;5145169;27;8999;-85
2022/09/11 03:03:08;;;;;;;;;29.75;25.00;;;;;16.18;80.06;99957.75;5145824;27;8846;-81
2022/09/11 03:05:39;;;;;;;;;28.50;24.75;;;;;16.19;80.05;99962.13;5147685;27;8834;-81
2022/09/11 03:08:07;;;;;;;;;27.75;26.50;;;;;16.22;79.65;99965.53;5146532;27;8847;-81
2022/09/11 03:10:34;;;;;;;;;24.00;19.00;;;;;16.23;80.13;99967.22;5146395;27;9592;-81
2022/09/11 03:13:02;;;;;;;;;25.50;23.00;;;;;16.25;80.27;99969.56;5145962;27;8826;-81
2022/09/11 03:15:30;;;;;;;;;30.75;25.75;;;;;16.27;80.10;99970.25;5146830;27;8949;-81
2022/09/11 03:17:58;;;;;;;;;32.00;27.75;;;;;16.30;79.58;99972.66;5147057;27;8834;-81
2022/09/11 03:20:25;;;;;;;;;31.50;26.50;;;;;16.33;80.05;99971.50;5145906;27;8848;-81
2022/09/11 03:22:53;;;;;;;;;18.00;15.00;;;;;16.36;79.80;99968.47;5146246;27;8830;-81
2022/09/11 03:25:22;;;;;;;;;21.25;19.00;;;;;16.38;80.09;99969.19;5146924;27;8833;-81
2022/09/11 03:27:50;;;;;;;;;19.50;16.25;;;;;16.39;80.01;99962.81;5146518;27;8833;-81
2022/09/11 03:30:18;;;;;;;;;24.25;21.75;;;;;16.38;79.61;99970.03;5147732;27;8852;-81
2022/09/11 03:32:46;;;;;;;;;28.50;24.00;;;;;16.38;79.92;99971.88;5147783;27;8898;-81
2022/09/11 03:35:15;;;;;;;;;27.25;27.00;;;;;16.38;80.32;99970.03;5147789;27;8838;-81
2022/09/11 03:37:43;;;;;;;;;27.50;22.00;;;;;16.40;79.65;99975.28;5147783;27;8837;-81
2022/09/11 03:40:11;;;;;;;;;28.00;25.25;;;;;16.40;79.85;99978.78;5148332;27;8861;-81
2022/09/11 03:42:40;;;;;;;;;33.25;30.50;;;;;16.39;79.99;99982.47;5148614;27;8818;-82
2022/09/11 03:45:07;;;;;;;;;23.00;20.50;;;;;16.39;79.98;99977.09;5147719;27;8869;-81
2022/09/11 03:47:36;;;;;;;;;20.25;18.50;;;;;16.39;80.00;99985.16;5147977;27;8844;-81
2022/09/11 03:50:03;;;;;;;;;25.75;23.00;;;;;16.39;80.01;99984.31;5148672;27;8833;-81
2022/09/11 03:52:31;;;;;;;;;31.00;28.25;;;;;16.38;80.21;99980.78;5149117;27;8825;-81
2022/09/11 03:54:59;;;;;;;;;25.25;20.75;;;;;16.39;80.16;99987.84;5149584;27;8846;-81
2022/09/11 03:57:27;;;;;;;;;28.50;25.50;;;;;16.40;80.17;99984.16;5130905;27;8825;-81
2022/09/11 03:59:55;;;;;;;;;31.50;25.25;;;;;16.41;79.82;99985.84;5146486;27;8842;-81
2022/09/11 04:02:23;;;;;;;;;23.00;21.50;;;;;16.42;79.67;99982.16;5146846;27;8846;-81
2022/09/11 04:04:51;;;;;;;;;36.25;30.50;;;;;16.43;80.55;99986.56;5146273;27;8838;-82
2022/09/11 04:07:19;;;;;;;;;30.00;24.50;;;;;16.41;80.01;99988.53;5147015;27;8842;-81
2022/09/11 04:09:47;;;;;;;;;40.00;33.00;;;;;16.43;79.98;99991.94;5147230;27;8848;-81
2022/09/11 04:12:16;;;;;;;;;30.00;24.75;;;;;16.44;80.20;99996.31;5145738;27;8842;-81
2022/09/11 04:14:43;;;;;;;;;37.75;29.75;;;;;16.44;80.50;99999.00;5145920;27;8879;-81
2022/09/11 04:17:11;;;;;;;;;24.75;20.00;;;;;16.43;80.37;99997.31;5146451;27;8942;-81
2022/09/11 04:19:39;;;;;;;;;32.25;26.00;;;;;16.42;79.96;99992.06;5147084;27;8849;-81
2022/09/11 04:22:09;;;;;;;;;27.50;23.50;;;;;16.42;80.28;100000.97;5146645;27;8944;-81
2022/09/11 04:24:36;;;;;;;;;37.50;31.75;;;;;16.43;79.78;100002.69;5146914;27;8826;-82
2022/09/11 04:27:04;;;;;;;;;32.00;22.00;;;;;16.44;80.39;100007.06;5145688;27;8836;-82
2022/09/11 04:29:32;;;;;;;;;30.75;27.50;;;;;16.45;80.26;100000.66;5147128;27;8822;-81
2022/09/11 04:32:01;;;;;;;;;31.50;27.50;;;;;16.45;80.32;100008.75;5145677;27;8818;-82
2022/09/11 04:34:28;;;;;;;;;38.25;28.00;;;;;16.44;79.88;100009.75;5146172;27;8833;-82
2022/09/11 04:36:56;;;;;;;;;27.50;23.25;;;;;16.43;80.72;100012.56;5146967;27;8832;-81
2022/09/11 04:39:24;;;;;;;;;24.67;21.67;;;;;16.41;80.01;100007.34;5146777;27;8856;-82
2022/09/11 04:41:54;;;;;;;;;27.67;21.33;;;;;16.40;79.96;100013.72;5148762;27;8844;-82
2022/09/11 04:44:22;;;;;;;;;26.00;20.25;;;;;16.40;80.42;100012.91;5150552;27;9008;-82
2022/09/11 04:46:50;;;;;;;;;27.75;23.75;;;;;16.39;80.49;100016.56;5150500;27;8860;-81
2022/09/11 04:49:18;;;;;;;;;36.50;34.25;;;;;16.38;80.48;100020.25;5150535;27;8842;-82
2022/09/11 04:51:45;;;;;;;;;40.00;32.25;;;;;16.36;80.51;100022.25;5150053;27;8830;-82
2022/09/11 04:54:13;;;;;;;;;30.75;27.75;;;;;16.34;80.36;100025.06;5150229;27;8833;-82
2022/09/11 04:56:41;;;;;;;;;35.75;32.00;;;;;16.31;80.36;100017.34;5150322;27;8853;-81
2022/09/11 04:59:12;;;;;;;;;38.25;33.00;;;;;16.29;80.80;100024.72;5149748;27;8822;-82
2022/09/11 05:01:39;;;;;;;;;29.25;23.75;;;;;16.28;80.68;100030.25;5150658;27;8838;-82
2022/09/11 05:04:08;;;;;;;;;22.75;19.50;;;;;16.27;80.60;100024.00;5149486;27;8818;-81
2022/09/11 05:06:36;;;;;;;;;28.25;24.75;;;;;16.27;80.58;100023.19;5149809;27;9539;-81
2022/09/11 05:09:04;;;;;;;;;33.00;29.25;;;;;16.26;80.51;100027.69;5149841;27;8834;-82
2022/09/11 05:11:32;;;;;;;;;28.75;23.00;;;;;16.27;80.18;100037.44;5149272;27;8826;-81
2022/09/11 05:14:00;;;;;;;;;36.25;30.75;;;;;16.29;80.68;100027.41;5148889;27;8819;-82
2022/09/11 05:16:28;;;;;;;;;39.00;33.25;;;;;16.31;80.27;100024.53;5148477;27;8837;-82
2022/09/11 05:18:56;;;;;;;;;35.50;33.25;;;;;16.31;80.62;100028.09;5149120;27;8841;-81
2022/09/11 05:21:23;;;;;;;;;29.50;24.00;;;;;16.31;80.04;100024.53;5148415;27;8846;-82
2022/09/11 05:23:51;;;;;;;;;46.50;38.50;;;;;16.32;80.72;100027.06;5148588;27;8841;-82
2022/09/11 05:26:19;;;;;;;;;21.50;15.75;;;;;16.30;80.06;100025.53;5148606;27;8857;-81
2022/09/11 05:28:46;;;;;;;;;37.50;30.00;;;;;16.31;80.27;100035.28;5149197;27;8833;-81
2022/09/11 05:31:14;;;;;;;;;31.50;26.50;;;;;16.31;80.82;100036.16;5148335;27;9025;-81
2022/09/11 05:33:43;;;;;;;;;30.75;30.25;;;;;16.32;80.67;100032.44;5148148;27;8917;-82
2022/09/11 05:36:10;;;;;;;;;41.00;33.25;;;;;16.34;80.09;100041.19;5148734;27;8841;-81
2022/09/11 05:38:39;;;;;;;;;30.00;26.00;;;;;16.34;80.34;100040.38;5148242;27;9560;-81
2022/09/11 05:41:06;;;;;;;;;23.50;22.50;;;;;16.34;80.40;100046.56;5148516;27;8891;-81
2022/09/11 05:43:34;;;;;;;;;44.50;32.75;;;;;16.34;80.36;100045.75;5148670;27;8814;-82
2022/09/11 05:46:02;;;;;;;;;24.50;23.00;;;;;16.33;79.88;100050.25;5149133;27;9479;-81
2022/09/11 05:48:30;;;;;;;;;39.00;30.50;;;;;16.34;79.88;100053.81;5148447;27;8836;-82
2022/09/11 05:50:58;;;;;;;;;36.50;31.00;;;;;16.34;80.34;100062.69;5147820;27;8956;-82
2022/09/11 05:53:26;;;;;;;;;35.50;33.00;;;;;16.33;80.97;100061.00;5146968;27;8824;-82
2022/09/11 05:55:54;;;;;;;;;37.25;30.75;;;;;16.33;80.10;100063.72;5148112;27;8928;-81
2022/09/11 05:58:21;;;;;;;;;32.75;28.50;;;;;16.32;80.63;100062.03;5147125;27;8838;-81
2022/09/11 06:00:49;;;;;;;;;43.75;38.00;;;;;16.34;80.31;100070.75;5148202;27;8917;-81
2022/09/11 06:03:17;;;;;;;;;39.25;27.50;;;;;16.37;80.40;100072.34;5147962;27;8890;-81
2022/09/11 06:05:45;;;;;;;;;29.25;24.75;;;;;16.39;80.00;100079.25;5148571;27;8842;-82
2022/09/11 06:08:13;;;;;;;;;36.50;24.75;;;;;16.43;80.43;100088.72;5148744;27;8841;-81
2022/09/11 06:10:40;;;;;;;;;17.50;15.50;;;;;16.46;79.90;100088.38;5149364;27;8874;-81
2022/09/11 06:13:08;;;;;;;;;31.00;27.50;;;;;16.50;80.04;100095.13;5148829;27;8829;-81
2022/09/11 06:15:36;;;;;;;;;35.00;28.25;;;;;16.54;80.25;100093.81;5146641;27;8877;-81
2022/09/11 06:18:13;;;;;;;;;32.75;27.00;;;;;16.59;79.92;100091.53;5146708;27;8826;-81
2022/09/11 06:20:41;;;;;;;;;31.50;26.75;;;;;16.63;79.75;100100.13;5145931;27;8829;-81
2022/09/11 06:23:09;;;;;;;;;35.25;32.50;;;;;16.64;80.01;100097.25;5145788;27;8857;-81
2022/09/11 06:25:37;;;;;;;;;36.75;32.50;;;;;16.65;79.73;100101.63;5145546;27;8857;-81
2022/09/11 06:28:04;;;;;;;;;34.75;31.25;;;;;16.68;79.40;100101.34;5145330;27;8844;-81
2022/09/11 06:30:32;;;;;;;;;37.75;34.25;;;;;16.72;79.78;100097.31;5152781;27;8914;-81
2022/09/11 06:33:00;;;;;;;;;35.50;30.00;;;;;16.73;79.98;100093.66;5151153;27;8858;-81
2022/09/11 06:35:28;;;;;;;;;37.25;28.50;;;;;16.74;79.60;100098.03;5148589;27;8952;-81
2022/09/11 06:37:56;;;;;;;;;28.75;26.00;;;;;16.75;79.75;100102.41;5148436;27;9026;-81
2022/09/11 06:40:24;;;;;;;;;29.00;21.75;;;;;16.75;79.46;100110.47;5147022;27;8876;-81
2022/09/11 06:42:53;;;;;;;;;35.75;29.00;;;;;16.74;79.50;100102.53;5146447;27;8838;-81
2022/09/11 06:45:20;;;;;;;;;12.25;10.25;;;;;16.72;79.53;100110.75;5146192;27;8853;-81
2022/09/11 06:47:48;;;;;;;;;24.50;20.00;;;;;16.75;79.49;100105.09;5146598;27;8848;-81
2022/09/11 06:50:16;;;;;;;;;37.75;27.25;;;;;16.83;79.62;100110.53;5146475;27;8842;-81
2022/09/11 06:52:44;;;;;;;;;27.75;24.75;;;;;16.87;79.73;100109.19;5144045;27;8861;-81
2022/09/11 06:55:13;;;;;;;;;28.00;25.50;;;;;16.93;79.57;100113.94;5138551;27;8846;-82
2022/09/11 06:57:41;;;;;;;;;32.50;28.50;;;;;16.97;79.30;100120.72;5138658;27;8826;-82
2022/09/11 07:00:09;;;;;;;;;40.00;31.25;;;;;16.99;78.76;100128.59;5138969;27;8830;-81
2022/09/11 07:02:37;;;;;;;;;41.00;33.25;;;;;17.01;78.79;100124.75;5139313;27;8860;-81
2022/09/11 07:05:05;;;;;;;;;27.75;27.00;;;;;17.07;79.19;100123.28;5138808;27;8834;-82
2022/09/11 07:07:33;;;;;;;;;33.25;24.75;;;;;17.10;79.34;100121.09;5139028;27;8849;-82
2022/09/11 07:10:03;;;;;;;;;35.75;32.50;;;;;17.14;78.93;100125.19;5138880;27;9496;-82
2022/09/11 07:12:32;;;;;;;;;37.00;29.25;;;;;17.15;78.60;100126.88;5138822;27;8845;-82
2022/09/11 07:14:59;;;;;;;;;23.50;20.25;;;;;17.16;78.71;100125.88;5138619;27;8845;-82
2022/09/11 07:17:27;;;;;;;;;25.75;22.00;;;;;17.18;78.88;100129.25;5137878;27;8856;-82
2022/09/11 07:19:54;;;;;;;;;30.25;29.50;;;;;17.18;78.66;100123.03;5138489;27;8825;-81
2022/09/11 07:22:22;;;;;;;;;32.00;25.25;;;;;17.21;78.80;100125.38;5137999;27;8964;-81
2022/09/11 07:24:53;;;;;;;;;29.00;25.75;;;;;17.25;79.03;100124.06;5138517;27;8846;-81
2022/09/11 07:27:21;;;;;;;;;34.50;29.00;;;;;17.25;78.62;100130.28;5138013;27;8831;-82
2022/09/11 07:29:49;;;;;;;;;27.50;24.75;;;;;17.24;78.32;100128.59;5139066;27;8829;-82
2022/09/11 07:32:17;;;;;;;;;31.50;27.75;;;;;17.24;78.74;100128.59;5138607;27;8832;-81
2022/09/11 07:34:46;;;;;;;;;24.75;22.50;;;;;17.23;79.10;100135.00;5137829;27;8863;-81
2022/09/11 07:37:14;;;;;;;;;31.25;27.00;;;;;17.25;79.02;100134.84;5138323;27;8849;-81
2022/09/11 07:39:41;;;;;;;;;28.25;23.00;;;;;17.32;79.07;100141.28;5138004;27;8834;-81
2022/09/11 07:42:10;;;;;;;;;23.00;20.00;;;;;17.36;78.58;100132.75;5137441;27;8934;-82
2022/09/11 07:44:38;;;;;;;;;21.00;19.00;;;;;17.39;78.57;100137.81;5137615;27;8825;-82
2022/09/11 07:47:06;;;;;;;;;32.00;28.00;;;;;17.44;78.34;100134.63;5117354;28;8843;-82
2022/09/11 07:49:33;;;;;;;;;24.00;20.75;;;;;17.52;78.17;100146.28;5117083;28;8975;-82
2022/09/11 07:52:02;;;;;;;;;32.50;28.00;;;;;17.63;78.46;100143.31;5117635;28;8832;-82
2022/09/11 07:54:30;;;;;;;;;27.00;18.50;;;;;17.72;77.92;100146.88;5117260;28;8835;-81
2022/09/11 07:56:57;;;;;;;;;30.25;25.00;;;;;17.83;77.42;100147.44;5117379;28;8844;-82
2022/09/11 07:59:26;;;;;;;;;25.60;23.40;;;;;17.97;77.42;100149.50;5117514;28;8951;-82
2022/09/11 08:01:55;;;;;;;;;17.75;14.00;;;;;18.08;76.78;100148.34;5116987;28;8828;-82
2022/09/11 08:04:23;;;;;;;;;32.00;22.75;;;;;18.10;76.39;100147.19;5116251;28;8858;-82
2022/09/11 08:06:51;;;;;;;;;40.25;33.25;;;;;18.10;77.07;100149.88;5116995;28;8885;-82
2022/09/11 08:09:19;;;;;;;;;25.20;17.80;;;;;18.12;76.78;100155.09;5117208;28;8866;-82
2022/09/11 08:11:47;;;;;;;;;33.50;32.00;;;;;18.20;77.09;100153.28;5116581;28;8828;-82
2022/09/11 08:14:16;;;;;;;;;34.00;30.80;;;;;18.31;77.19;100161.09;5124101;28;8843;-82
2022/09/11 08:16:44;;;;;;;;;28.00;26.60;;;;;18.43;76.67;100162.44;5131103;28;8871;-82
2022/09/11 08:19:11;;;;;;;;;25.60;22.80;;;;;18.56;76.04;100157.41;5121527;28;8850;-82
2022/09/11 08:21:40;;;;;;;;;34.80;32.00;;;;;18.65;75.88;100161.78;5121271;28;8866;-82
2022/09/11 08:24:08;;;;;;;;;41.75;33.00;;;;;18.71;76.04;100161.13;5120915;28;8913;-82
2022/09/11 08:26:36;;;;;;;;;28.40;23.60;;;;;18.79;76.12;100162.97;5120752;28;8879;-82
2022/09/11 08:29:04;;;;;;;;;19.00;17.60;;;;;18.90;75.61;100165.34;5121090;28;8840;-82
2022/09/11 08:31:32;;;;;;;;;29.00;26.40;;;;;19.01;75.55;100168.53;5120834;28;8832;-82
2022/09/11 08:34:00;;;;;;;;;38.00;28.00;;;;;19.08;75.38;100174.09;5121525;28;8824;-82
2022/09/11 08:36:28;;;;;;;;;16.00;13.80;;;;;19.03;75.43;100176.50;5120752;28;8827;-82
2022/09/11 08:38:56;;;;;;;;;30.20;26.60;;;;;18.95;75.69;100181.84;5120781;28;8836;-82
2022/09/11 08:41:23;;;;;;;;;21.20;18.60;;;;;18.83;75.53;100186.75;5121252;28;8847;-82
2022/09/11 08:43:51;;;;;;;;;32.60;28.60;;;;;18.78;76.20;100183.75;5120113;28;8851;-82
2022/09/11 08:46:19;;;;;;;;;28.00;24.60;;;;;18.76;75.94;100187.63;5134342;27;8841;-82
2022/09/11 08:48:47;;;;;;;;;30.60;27.20;;;;;18.73;76.10;100191.47;5140680;27;8821;-82
2022/09/11 08:51:15;;;;;;;;;31.20;26.80;;;;;18.76;76.49;100190.31;5140381;27;8876;-82
2022/09/11 08:53:44;;;;;;;;;27.80;25.20;;;;;18.76;76.37;100188.44;5140976;27;8825;-82
2022/09/11 08:56:12;;;;;;;;;25.60;20.40;;;;;18.78;76.24;100193.69;5140550;27;8838;-82
2022/09/11 08:58:40;;;;;;;;;28.00;24.60;;;;;18.80;76.32;100199.75;5140945;27;8826;-82
2022/09/11 09:01:07;;;;;;;;;34.40;28.40;;;;;18.82;76.02;100195.88;5140847;27;9541;-82
2022/09/11 09:03:35;;;;;;;;;35.20;25.60;;;;;18.83;76.15;100205.66;5141008;27;8873;-82
2022/09/11 09:06:03;;;;;;;;;39.00;32.80;;;;;18.79;76.35;100207.00;5140201;27;8821;-82
2022/09/11 09:08:34;;;;;;;;;39.50;35.75;;;;;18.73;76.21;100212.25;5140263;27;8844;-83
2022/09/11 09:11:01;;;;;;;;;37.80;33.60;;;;;18.65;77.24;100217.59;5140272;27;8828;-82
2022/09/11 09:13:30;;;;;;;;;38.60;33.40;;;;;18.62;77.18;100218.81;5139985;27;8830;-82
2022/09/11 09:15:57;;;;;;;;;35.60;29.20;;;;;18.65;76.67;100209.50;5140179;27;9487;-82
2022/09/11 09:18:25;;;;;;;;;33.00;30.00;;;;;18.72;76.64;100215.94;5140043;27;9655;-82
2022/09/11 09:20:53;;;;;;;;;40.00;36.00;;;;;18.79;76.67;100200.75;5140029;27;8842;-82
2022/09/11 09:23:21;;;;;;;;;37.60;31.40;;;;;18.96;76.00;100213.28;5139467;27;8864;-82
2022/09/11 09:25:51;;;;;;;;;33.60;29.60;;;;;19.19;76.01;100211.56;5139136;27;8838;-83
2022/09/11 09:28:19;;;;;;;;;36.40;31.40;;;;;19.44;75.10;100208.69;5138973;27;8833;-83
2022/09/11 09:30:46;;;;;;;;;35.00;26.00;;;;;19.81;74.58;100222.44;5139419;27;8814;-84
2022/09/11 09:33:15;;;;;;;;;42.00;38.00;;;;;20.03;73.60;100220.84;5140042;27;8830;-83
2022/09/11 09:35:43;;;;;;;;;33.80;30.20;;;;;20.00;73.57;100222.03;5139776;27;8906;-83
2022/09/11 09:38:10;;;;;;;;;30.40;24.20;;;;;19.91;73.95;100227.63;5139817;27;8845;-83
2022/09/11 09:40:38;;;;;;;;;38.80;31.20;;;;;19.90;74.68;100225.97;5139386;27;8841;-83
2022/09/11 09:43:06;;;;;;;;;33.00;29.60;;;;;19.90;74.39;100223.25;5138928;27;8865;-83
2022/09/11 09:45:36;;;;;;;;;27.00;23.20;;;;;19.96;73.96;100220.69;5140121;27;8837;-83
2022/09/11 09:48:04;;;;;;;;;29.60;21.00;;;;;20.19;74.08;100221.63;5145296;27;8826;-84
2022/09/11 09:50:32;;;;;;;;;33.00;30.00;;;;;20.46;73.32;100218.47;5145986;27;8844;-84
2022/09/11 09:53:00;;;;;;;;;35.40;28.60;;;;;20.50;73.04;100219.81;5145197;27;8842;-84
2022/09/11 09:55:27;;;;;;;;;40.40;32.00;;;;;20.39;73.29;100222.88;5140635;27;8946;-84
2022/09/11 09:57:55;;;;;;;;;33.40;27.20;;;;;20.32;73.79;100216.50;5143802;27;8818;-84
2022/09/11 10:00:23;;;;;;;;;27.20;24.20;;;;;20.43;73.24;100228.78;5141808;27;8860;-84
2022/09/11 10:02:53;;;;;;;;;27.00;23.20;;;;;20.62;72.79;100223.75;5141030;27;8826;-84
2022/09/11 10:05:21;;;;;;;;;29.40;22.20;;;;;20.72;72.86;100229.81;5140415;27;8838;-83
2022/09/11 10:07:49;;;;;;;;;31.80;23.00;;;;;21.28;71.51;100229.38;5138410;27;8849;-84
2022/09/11 10:10:17;;;;;;;;;30.40;25.80;;;;;21.81;70.51;100219.22;5138579;27;8828;-83
2022/09/11 10:12:44;;;;;;;;;24.00;23.20;;;;;22.16;69.88;100217.59;5138434;27;8822;-83
2022/09/11 10:15:12;;;;;;;;;24.20;21.40;;;;;22.40;69.34;100228.13;5138852;27;8814;-83
2022/09/11 10:17:40;;;;;;;;;18.40;13.00;;;;;22.93;68.20;100216.84;5138464;27;8857;-83
2022/09/11 10:20:07;;;;;;;;;24.40;22.20;;;;;23.11;67.91;100220.78;5138602;27;8823;-83
2022/09/11 10:22:35;;;;;;;;;23.40;22.00;;;;;23.48;66.78;100223.22;5138295;27;8911;-84
2022/09/11 10:25:03;;;;;;;;;25.20;25.20;;;;;24.38;65.15;100213.94;5137955;27;8938;-83
2022/09/11 10:27:31;;;;;;;;;25.80;21.80;;;;;24.91;64.45;100206.78;5138583;27;8838;-84
2022/09/11 10:29:59;;;;;;;;;24.00;20.40;;;;;24.65;64.95;100217.63;5138233;27;8863;-84
2022/09/11 10:32:27;;;;;;;;;22.80;20.60;;;;;24.00;66.71;100212.72;5138036;27;8856;-84
2022/09/11 10:34:55;;;;;;;;;25.80;22.00;;;;;23.71;67.29;100217.50;5137472;27;8837;-84
2022/09/11 10:37:23;;;;;;;;;25.20;22.20;;;;;23.71;67.52;100221.09;5137928;27;8821;-84
2022/09/11 10:39:51;;;;;;;;;25.80;22.40;;;;;23.49;67.90;100226.75;5137188;27;8830;-84
2022/09/11 10:42:21;;;;;;;;;25.40;24.40;;;;;23.02;68.66;100221.09;5137617;27;8816;-84
2022/09/11 10:44:49;;;;;;;;;24.80;20.00;;;;;22.94;69.27;100223.97;5137837;27;8845;-83
2022/09/11 10:47:17;;;;;;;;;24.20;21.20;;;;;22.95;68.93;100225.63;5137865;27;8845;-83
2022/09/11 10:49:46;;;;;;;;;24.00;19.00;;;;;22.67;70.13;100227.41;5137217;27;8891;-82
2022/09/11 10:52:13;;;;;;;;;26.60;23.80;;;;;22.99;69.65;100226.94;5137736;27;8834;-82
2022/09/11 10:54:43;;;;;;;;;26.80;23.40;;;;;23.31;68.50;100223.72;5137980;27;8846;-83
2022/09/11 10:57:12;;;;;;;;;25.00;21.60;;;;;23.16;68.75;100231.09;5138475;27;8848;-83
2022/09/11 10:59:40;;;;;;;;;19.40;19.20;;;;;22.96;69.09;100244.47;5138775;27;9491;-82
2022/09/11 11:02:09;;;;;;;;;29.00;27.60;;;;;22.66;69.87;100237.47;5137982;27;8825;-83
2022/09/11 11:04:36;;;;;;;;;19.60;18.80;;;;;22.37;70.63;100231.19;5137190;27;8926;-83
2022/09/11 11:07:04;;;;;;;;;29.00;25.00;;;;;22.21;70.65;100231.41;5138233;27;8818;-83
2022/09/11 11:09:32;;;;;;;;;23.60;22.00;;;;;22.61;69.86;100239.06;5138473;27;8906;-82
2022/09/11 11:12:00;;;;;;;;;20.00;16.80;;;;;22.86;68.62;100232.22;5137711;27;8818;-82
2022/09/11 11:14:28;;;;;;;;;19.20;18.60;;;;;22.71;68.95;100231.44;5137943;27;8822;-82
2022/09/11 11:16:55;;;;;;;;;26.40;21.00;;;;;22.46;69.64;100239.09;5137564;27;8872;-83
2022/09/11 11:19:23;;;;;;;;;26.20;22.20;;;;;22.32;70.28;100236.38;5138160;27;8826;-82
2022/09/11 11:21:51;;;;;;;;;21.20;20.80;;;;;22.31;70.06;100238.25;5138431;27;9491;-82